createdAt,value
2018-07-06T00:00:58.543Z,971.36
2018-07-06T00:01:58.594Z,971.41
2018-07-06T00:02:58.645Z,971.36
2018-07-06T00:03:58.693Z,971.37
2018-07-06T00:04:58.787Z,971.36
2018-07-06T00:05:58.791Z,971.33
2018-07-06T00:06:58.840Z,971.38
2018-07-06T00:07:58.891Z,971.35
2018-07-06T00:08:58.939Z,971.34
2018-07-06T00:09:59.014Z,971.34
2018-07-06T00:10:59.093Z,971.35
2018-07-06T00:11:59.125Z,971.31
2018-07-06T00:12:59.140Z,971.34
2018-07-06T00:13:59.188Z,971.30
2018-07-06T00:14:59.242Z,971.28
2018-07-06T00:15:59.316Z,971.30
2018-07-06T00:16:59.337Z,971.28
2018-07-06T00:17:59.391Z,971.27
2018-07-06T00:18:59.441Z,971.29
2018-07-06T00:19:59.488Z,971.31
2018-07-06T00:20:59.560Z,971.30
2018-07-06T00:21:59.599Z,971.32
2018-07-06T00:22:59.638Z,971.28
2018-07-06T00:23:59.688Z,971.29
2018-07-06T00:24:59.737Z,971.25
2018-07-06T00:25:59.809Z,971.27
2018-07-06T00:26:59.840Z,971.26
2018-07-06T00:27:59.912Z,971.27
2018-07-06T00:28:59.938Z,971.28
2018-07-06T00:29:59.988Z,971.26
2018-07-06T00:31:00.037Z,971.26
2018-07-06T00:32:00.084Z,971.24
2018-07-06T00:33:00.158Z,971.26
2018-07-06T00:34:00.186Z,971.25
2018-07-06T00:35:00.246Z,971.26
2018-07-06T00:36:00.282Z,971.21
2018-07-06T00:37:00.334Z,971.25
2018-07-06T00:38:00.409Z,971.22
2018-07-06T00:39:00.437Z,971.23
2018-07-06T00:40:00.482Z,971.18
2018-07-06T00:41:00.539Z,971.20
2018-07-06T00:42:00.582Z,971.22
2018-07-06T00:43:00.659Z,971.26
2018-07-06T00:44:00.683Z,971.25
2018-07-06T00:45:00.731Z,971.24
2018-07-06T00:46:00.785Z,971.23
2018-07-06T00:47:00.830Z,971.22
2018-07-06T00:48:00.902Z,971.23
2018-07-06T00:49:00.937Z,971.22
2018-07-06T00:50:00.983Z,971.18
2018-07-06T00:51:01.030Z,971.23
2018-07-06T00:52:01.078Z,971.22
2018-07-06T00:53:01.152Z,971.29
2018-07-06T00:54:01.204Z,971.22
2018-07-06T00:55:01.228Z,971.22
2018-07-06T00:56:01.282Z,971.26
2018-07-06T00:57:01.387Z,971.25
2018-07-06T00:58:01.384Z,971.28
2018-07-06T00:59:01.459Z,971.26
2018-07-06T01:00:01.490Z,971.29
2018-07-06T01:01:01.528Z,971.26
2018-07-06T01:02:01.576Z,971.27
2018-07-06T01:03:01.628Z,971.24
2018-07-06T01:04:01.697Z,971.26
2018-07-06T01:05:01.727Z,971.24
2018-07-06T01:06:01.774Z,971.28
2018-07-06T01:07:01.827Z,971.28
2018-07-06T01:08:01.876Z,971.27
2018-07-06T01:09:01.947Z,971.26
2018-07-06T01:10:02.032Z,971.25
2018-07-06T01:11:02.027Z,971.27
2018-07-06T01:12:02.073Z,971.25
2018-07-06T01:13:02.127Z,971.26
2018-07-06T01:14:02.173Z,971.27
2018-07-06T01:15:02.249Z,971.28
2018-07-06T01:16:02.274Z,971.26
2018-07-06T01:17:02.337Z,971.27
2018-07-06T01:18:02.373Z,971.29
2018-07-06T01:19:02.425Z,971.29
2018-07-06T01:20:02.495Z,971.25
2018-07-06T01:21:02.520Z,971.25
2018-07-06T01:22:02.571Z,971.27
2018-07-06T01:23:02.621Z,971.29
2018-07-06T01:24:02.674Z,971.32
2018-07-06T01:25:02.743Z,971.27
2018-07-06T01:26:02.773Z,971.31
2018-07-06T01:27:02.820Z,971.29
2018-07-06T01:28:02.869Z,971.30
2018-07-06T01:29:02.922Z,971.30
2018-07-06T01:30:02.999Z,971.27
2018-07-06T01:31:03.019Z,971.30
2018-07-06T01:32:03.066Z,971.27
2018-07-06T01:33:03.117Z,971.27
2018-07-06T01:34:03.168Z,971.30
2018-07-06T01:35:03.243Z,971.30
2018-07-06T01:36:03.293Z,971.31
2018-07-06T01:37:03.321Z,971.30
2018-07-06T01:38:03.368Z,971.28
2018-07-06T01:39:03.419Z,971.30
2018-07-06T01:40:03.465Z,971.31
2018-07-06T01:41:03.540Z,971.26
2018-07-06T01:42:03.568Z,971.29
2018-07-06T01:43:03.616Z,971.26
2018-07-06T01:44:03.664Z,971.26
2018-07-06T01:45:03.717Z,971.25
2018-07-06T01:46:03.796Z,971.26
2018-07-06T01:47:03.816Z,971.24
2018-07-06T01:48:03.864Z,971.24
2018-07-06T01:49:03.912Z,971.25
2018-07-06T01:50:03.963Z,971.29
2018-07-06T01:51:04.052Z,971.29
2018-07-06T01:52:04.065Z,971.33
2018-07-06T01:53:04.111Z,971.30
2018-07-06T01:54:04.163Z,971.25
2018-07-06T01:55:04.212Z,971.26
2018-07-06T01:56:04.293Z,971.26
2018-07-06T01:57:04.313Z,971.26
2018-07-06T01:58:04.361Z,971.28
2018-07-06T01:59:04.456Z,971.30
2018-07-06T02:00:04.462Z,971.29
2018-07-06T02:01:04.521Z,971.29
2018-07-06T02:02:04.560Z,971.29
2018-07-06T02:03:04.612Z,971.28
2018-07-06T02:04:04.683Z,971.31
2018-07-06T02:05:04.710Z,971.30
2018-07-06T02:06:04.762Z,971.28
2018-07-06T02:07:04.832Z,971.28
2018-07-06T02:08:04.860Z,971.24
2018-07-06T02:09:04.908Z,971.26
2018-07-06T02:10:04.982Z,971.30
2018-07-06T02:11:05.014Z,971.27
2018-07-06T02:12:05.085Z,971.27
2018-07-06T02:13:05.110Z,971.23
2018-07-06T02:14:05.158Z,971.27
2018-07-06T02:15:05.210Z,971.26
2018-07-06T02:16:05.281Z,971.24
2018-07-06T02:17:05.305Z,971.27
2018-07-06T02:18:05.379Z,971.30
2018-07-06T02:19:05.406Z,971.30
2018-07-06T02:20:05.458Z,971.28
2018-07-06T02:21:05.513Z,971.30
2018-07-06T02:22:05.554Z,971.33
2018-07-06T02:23:05.628Z,971.33
2018-07-06T02:24:05.654Z,971.29
2018-07-06T02:25:05.706Z,971.31
2018-07-06T02:26:05.753Z,971.27
2018-07-06T02:27:05.805Z,971.29
2018-07-06T02:28:05.876Z,971.29
2018-07-06T02:29:05.904Z,971.26
2018-07-06T02:30:05.953Z,971.24
2018-07-06T02:31:06.004Z,971.27
2018-07-06T02:32:06.057Z,971.29
2018-07-06T02:33:06.125Z,971.31
2018-07-06T02:34:06.153Z,971.31
2018-07-06T02:35:06.202Z,971.28
2018-07-06T02:36:06.250Z,971.35
2018-07-06T02:37:06.303Z,971.32
2018-07-06T02:38:06.388Z,971.32
2018-07-06T02:39:06.400Z,971.31
2018-07-06T02:40:06.452Z,971.31
2018-07-06T02:41:06.499Z,971.28
2018-07-06T02:42:06.558Z,971.27
2018-07-06T02:43:06.634Z,971.29
2018-07-06T02:44:06.651Z,971.30
2018-07-06T02:45:06.699Z,971.28
2018-07-06T02:46:06.756Z,971.27
2018-07-06T02:47:06.800Z,971.25
2018-07-06T02:48:06.873Z,971.27
2018-07-06T02:49:06.921Z,971.26
2018-07-06T02:50:06.948Z,971.24
2018-07-06T02:51:07.000Z,971.28
2018-07-06T02:52:07.053Z,971.28
2018-07-06T02:53:07.098Z,971.28
2018-07-06T02:54:07.186Z,971.29
2018-07-06T02:55:07.206Z,971.29
2018-07-06T02:56:07.248Z,971.26
2018-07-06T02:57:07.298Z,971.28
2018-07-06T02:58:07.347Z,971.30
2018-07-06T02:59:07.422Z,971.30
2018-07-06T03:00:07.448Z,971.29
2018-07-06T03:01:07.495Z,971.33
2018-07-06T03:02:07.545Z,971.26
2018-07-06T03:03:07.602Z,971.32
2018-07-06T03:04:07.665Z,971.34
2018-07-06T03:05:07.722Z,971.32
2018-07-06T03:06:07.747Z,971.32
2018-07-06T03:07:07.794Z,971.33
2018-07-06T03:08:07.845Z,971.36
2018-07-06T03:09:07.894Z,971.33
2018-07-06T03:10:07.970Z,971.35
2018-07-06T03:11:07.995Z,971.39
2018-07-06T03:12:08.042Z,971.43
2018-07-06T03:13:08.093Z,971.48
2018-07-06T03:14:08.141Z,971.47
2018-07-06T03:15:08.228Z,971.47
2018-07-06T03:16:08.242Z,971.46
2018-07-06T03:17:08.292Z,971.46
2018-07-06T03:18:08.340Z,971.44
2018-07-06T03:19:08.392Z,971.48
2018-07-06T03:20:08.489Z,971.49
2018-07-06T03:21:08.491Z,971.46
2018-07-06T03:22:09.418Z,971.42
2018-07-06T03:23:08.589Z,971.45
2018-07-06T03:24:08.640Z,971.42
2018-07-06T03:25:08.713Z,971.40
2018-07-06T03:26:08.762Z,971.42
2018-07-06T03:27:08.789Z,971.44
2018-07-06T03:28:08.938Z,971.41
2018-07-06T03:29:08.887Z,971.46
2018-07-06T03:30:08.940Z,971.46
2018-07-06T03:31:09.011Z,971.43
2018-07-06T03:32:09.041Z,971.43
2018-07-06T03:33:09.085Z,971.45
2018-07-06T03:34:09.145Z,971.42
2018-07-06T03:35:09.189Z,971.43
2018-07-06T03:36:09.264Z,971.41
2018-07-06T03:37:09.286Z,971.43
2018-07-06T03:38:09.334Z,971.46
2018-07-06T03:39:09.388Z,971.48
2018-07-06T03:40:09.434Z,971.47
2018-07-06T03:41:09.525Z,971.49
2018-07-06T03:42:09.535Z,971.51
2018-07-06T03:43:09.586Z,971.49
2018-07-06T03:44:09.637Z,971.48
2018-07-06T03:45:09.683Z,971.48
2018-07-06T03:46:09.763Z,971.46
2018-07-06T03:47:09.785Z,971.48
2018-07-06T03:48:09.873Z,971.47
2018-07-06T03:49:09.886Z,971.45
2018-07-06T03:50:09.931Z,971.48
2018-07-06T03:51:10.015Z,971.46
2018-07-06T03:52:10.031Z,971.47
2018-07-06T03:53:10.087Z,971.43
2018-07-06T03:54:10.133Z,971.47
2018-07-06T03:55:10.182Z,971.44
2018-07-06T03:56:10.260Z,971.43
2018-07-06T03:57:10.318Z,971.44
2018-07-06T03:58:10.332Z,971.44
2018-07-06T03:59:10.380Z,971.44
2018-07-06T04:00:10.433Z,971.44
2018-07-06T04:01:10.505Z,971.49
2018-07-06T04:02:10.558Z,971.48
2018-07-06T04:03:10.581Z,971.51
2018-07-06T04:04:10.631Z,971.52
2018-07-06T04:05:10.679Z,971.49
2018-07-06T04:06:10.732Z,971.47
2018-07-06T04:07:10.805Z,971.50
2018-07-06T04:08:10.831Z,971.52
2018-07-06T04:09:10.898Z,971.48
2018-07-06T04:10:10.930Z,971.50
2018-07-06T04:11:10.979Z,971.50
2018-07-06T04:12:11.068Z,971.50
2018-07-06T04:13:11.101Z,971.51
2018-07-06T04:14:11.126Z,971.51
2018-07-06T04:15:11.180Z,971.51
2018-07-06T04:16:11.226Z,971.56
2018-07-06T04:17:11.305Z,971.57
2018-07-06T04:18:11.326Z,971.56
2018-07-06T04:19:11.402Z,971.57
2018-07-06T04:20:11.430Z,971.59
2018-07-06T04:21:11.476Z,971.59
2018-07-06T04:22:11.527Z,971.56
2018-07-06T04:23:11.575Z,971.58
2018-07-06T04:24:11.653Z,971.62
2018-07-06T04:25:11.675Z,971.63
2018-07-06T04:26:11.726Z,971.63
2018-07-06T04:27:12.432Z,971.66
2018-07-06T04:28:11.826Z,971.64
2018-07-06T04:29:11.898Z,971.62
2018-07-06T04:30:11.924Z,971.66
2018-07-06T04:31:11.975Z,971.67
2018-07-06T04:32:12.026Z,971.67
2018-07-06T04:33:12.117Z,971.67
2018-07-06T04:34:12.150Z,971.68
2018-07-06T04:35:12.176Z,971.67
2018-07-06T04:36:12.224Z,971.64
2018-07-06T04:37:12.273Z,971.67
2018-07-06T04:38:12.322Z,971.65
2018-07-06T04:39:12.399Z,971.67
2018-07-06T04:40:12.446Z,971.70
2018-07-06T04:41:12.472Z,971.69
2018-07-06T04:42:12.521Z,971.72
2018-07-06T04:43:12.571Z,971.72
2018-07-06T04:44:12.635Z,971.73
2018-07-06T04:45:12.693Z,971.74
2018-07-06T04:46:12.722Z,971.71
2018-07-06T04:47:12.771Z,971.73
2018-07-06T04:48:12.825Z,971.74
2018-07-06T04:49:12.870Z,971.78
2018-07-06T04:50:12.945Z,971.77
2018-07-06T04:51:12.971Z,971.76
2018-07-06T04:52:13.020Z,971.78
2018-07-06T04:53:13.072Z,971.78
2018-07-06T04:54:13.121Z,971.77
2018-07-06T04:55:13.194Z,971.81
2018-07-06T04:56:13.221Z,971.78
2018-07-06T04:57:13.267Z,971.78
2018-07-06T04:58:13.319Z,971.80
2018-07-06T04:59:13.369Z,971.82
2018-07-06T05:00:13.448Z,971.81
2018-07-06T05:01:13.466Z,971.84
2018-07-06T05:02:13.517Z,971.85
2018-07-06T05:03:13.578Z,971.83
2018-07-06T05:04:13.617Z,971.85
2018-07-06T05:05:13.693Z,971.83
2018-07-06T05:06:13.716Z,971.89
2018-07-06T05:07:13.769Z,971.85
2018-07-06T05:08:13.826Z,971.85
2018-07-06T05:09:13.867Z,971.85
2018-07-06T05:10:13.940Z,971.91
2018-07-06T05:11:13.992Z,971.89
2018-07-06T05:12:14.014Z,971.92
2018-07-06T05:13:14.070Z,971.95
2018-07-06T05:14:14.121Z,971.91
2018-07-06T05:15:14.165Z,971.95
2018-07-06T05:16:14.241Z,971.92
2018-07-06T05:17:14.264Z,971.96
2018-07-06T05:18:14.315Z,971.91
2018-07-06T05:19:14.365Z,971.95
2018-07-06T05:20:14.416Z,971.93
2018-07-06T05:21:14.493Z,971.95
2018-07-06T05:22:14.513Z,971.93
2018-07-06T05:23:14.568Z,971.87
2018-07-06T05:24:14.614Z,971.95
2018-07-06T05:25:14.662Z,971.93
2018-07-06T05:26:14.746Z,971.92
2018-07-06T05:27:14.764Z,971.93
2018-07-06T05:28:14.814Z,971.96
2018-07-06T05:29:14.860Z,971.97
2018-07-06T05:30:14.920Z,971.94
2018-07-06T05:31:14.995Z,971.99
2018-07-06T05:32:15.014Z,972.00
2018-07-06T05:33:15.062Z,971.98
2018-07-06T05:34:15.111Z,972.02
2018-07-06T05:35:15.160Z,972.00
2018-07-06T05:36:15.237Z,971.98
2018-07-06T05:37:15.290Z,972.02
2018-07-06T05:38:15.309Z,972.01
2018-07-06T05:39:15.362Z,972.00
2018-07-06T05:40:15.408Z,972.03
2018-07-06T05:41:15.458Z,972.05
2018-07-06T05:42:15.537Z,972.08
2018-07-06T05:43:15.560Z,972.05
2018-07-06T05:44:15.611Z,972.09
2018-07-06T05:45:15.657Z,972.09
2018-07-06T05:46:15.711Z,972.13
2018-07-06T05:47:15.783Z,972.14
2018-07-06T05:48:15.836Z,972.14
2018-07-06T05:49:15.860Z,972.15
2018-07-06T05:50:15.911Z,972.16
2018-07-06T05:51:15.958Z,972.20
2018-07-06T05:52:16.030Z,972.18
2018-07-06T05:53:16.080Z,972.24
2018-07-06T05:54:16.107Z,972.23
2018-07-06T05:55:16.163Z,972.24
2018-07-06T05:56:16.208Z,972.21
2018-07-06T05:57:16.255Z,972.21
2018-07-06T05:58:16.331Z,972.23
2018-07-06T05:59:16.420Z,972.27
2018-07-06T06:00:16.404Z,972.25
2018-07-06T06:01:16.456Z,972.26
2018-07-06T06:02:16.503Z,972.28
2018-07-06T06:03:16.579Z,972.29
2018-07-06T06:04:16.633Z,972.28
2018-07-06T06:05:16.655Z,972.30
2018-07-06T06:06:16.707Z,972.28
2018-07-06T06:07:16.756Z,972.28
2018-07-06T06:08:16.805Z,972.26
2018-07-06T06:09:16.883Z,972.27
2018-07-06T06:10:16.907Z,972.27
2018-07-06T06:11:16.953Z,972.27
2018-07-06T06:12:17.011Z,972.25
2018-07-06T06:13:17.052Z,972.28
2018-07-06T06:14:17.123Z,972.29
2018-07-06T06:15:17.195Z,972.27
2018-07-06T06:16:17.205Z,972.25
2018-07-06T06:17:17.252Z,972.29
2018-07-06T06:18:17.300Z,972.29
2018-07-06T06:19:17.362Z,972.31
2018-07-06T06:20:17.425Z,972.32
2018-07-06T06:21:17.450Z,972.31
2018-07-06T06:22:17.507Z,972.33
2018-07-06T06:23:17.550Z,972.33
2018-07-06T06:24:17.598Z,972.37
2018-07-06T06:25:17.676Z,972.35
2018-07-06T06:26:17.699Z,972.36
2018-07-06T06:27:17.750Z,972.37
2018-07-06T06:28:17.797Z,972.41
2018-07-06T06:29:17.852Z,972.38
2018-07-06T06:30:17.923Z,972.39
2018-07-06T06:31:17.980Z,972.38
2018-07-06T06:32:18.000Z,972.40
2018-07-06T06:33:18.079Z,972.41
2018-07-06T06:34:18.098Z,972.39
2018-07-06T06:35:18.150Z,972.41
2018-07-06T06:36:18.224Z,972.43
2018-07-06T06:37:18.250Z,972.48
2018-07-06T06:38:18.296Z,972.48
2018-07-06T06:39:18.376Z,972.45
2018-07-06T06:40:18.394Z,972.49
2018-07-06T06:41:18.468Z,972.51
2018-07-06T06:42:18.495Z,972.55
2018-07-06T06:43:18.546Z,972.54
2018-07-06T06:44:18.596Z,972.56
2018-07-06T06:45:18.645Z,972.56
2018-07-06T06:46:18.721Z,972.54
2018-07-06T06:47:18.766Z,972.58
2018-07-06T06:48:18.793Z,972.60
2018-07-06T06:49:18.845Z,972.61
2018-07-06T06:50:18.891Z,972.59
2018-07-06T06:51:18.943Z,972.58
2018-07-06T06:52:19.016Z,972.61
2018-07-06T06:53:19.042Z,972.60
2018-07-06T06:54:19.092Z,972.61
2018-07-06T06:55:19.192Z,972.65
2018-07-06T06:56:19.195Z,972.62
2018-07-06T06:57:19.263Z,972.63
2018-07-06T06:58:19.292Z,972.67
2018-07-06T06:59:19.341Z,972.56
2018-07-06T07:00:21.149Z,972.61
2018-07-06T07:01:19.445Z,972.61
2018-07-06T07:02:19.521Z,972.62
2018-07-06T07:03:40.568Z,972.58
2018-07-06T07:04:19.588Z,972.60
2018-07-06T07:05:19.641Z,972.62
2018-07-06T07:06:19.700Z,972.61
2018-07-06T07:07:19.782Z,972.62
2018-07-06T07:08:19.816Z,972.62
2018-07-06T07:09:19.844Z,972.68
2018-07-06T07:10:19.889Z,972.64
2018-07-06T07:11:19.938Z,972.64
2018-07-06T07:12:19.989Z,972.68
2018-07-06T07:13:20.071Z,972.71
2018-07-06T07:14:20.087Z,972.69
2018-07-06T07:15:20.138Z,972.70
2018-07-06T07:16:20.185Z,972.72
2018-07-06T07:17:20.236Z,972.70
2018-07-06T07:18:20.329Z,972.73
2018-07-06T07:19:20.340Z,972.70
2018-07-06T07:20:20.389Z,972.69
2018-07-06T07:21:20.437Z,972.72
2018-07-06T07:22:20.488Z,972.79
2018-07-06T07:23:20.568Z,972.74
2018-07-06T07:24:20.624Z,972.74
2018-07-06T07:25:20.639Z,972.76
2018-07-06T07:26:20.691Z,972.75
2018-07-06T07:27:20.735Z,972.78
2018-07-06T07:28:20.810Z,972.81
2018-07-06T07:29:20.863Z,972.77
2018-07-06T07:30:20.887Z,972.76
2018-07-06T07:31:20.936Z,972.80
2018-07-06T07:32:20.987Z,972.81
2018-07-06T07:33:21.058Z,972.78
2018-07-06T07:34:21.107Z,972.82
2018-07-06T07:35:21.134Z,972.78
2018-07-06T07:36:21.184Z,972.80
2018-07-06T07:37:21.235Z,972.80
2018-07-06T07:38:22.276Z,972.79
2018-07-06T07:39:21.369Z,972.80
2018-07-06T07:40:21.382Z,972.81
2018-07-06T07:41:21.436Z,972.80
2018-07-06T07:42:21.485Z,972.82
2018-07-06T07:43:21.537Z,972.82
2018-07-06T07:44:21.613Z,972.83
2018-07-06T07:45:21.634Z,972.86
2018-07-06T07:46:21.720Z,972.82
2018-07-06T07:47:21.733Z,972.85
2018-07-06T07:48:21.781Z,972.83
2018-07-06T07:49:21.855Z,972.86
2018-07-06T07:50:21.910Z,972.91
2018-07-06T07:51:21.934Z,972.91
2018-07-06T07:52:22.032Z,972.93
2018-07-06T07:53:22.033Z,972.96
2018-07-06T07:54:22.082Z,972.97
2018-07-06T07:55:22.168Z,972.96
2018-07-06T07:56:22.180Z,972.98
2018-07-06T07:57:22.233Z,972.98
2018-07-06T07:58:22.280Z,973.00
2018-07-06T07:59:22.331Z,972.96
2018-07-06T08:00:22.427Z,973.02
2018-07-06T08:01:22.593Z,972.96
2018-07-06T08:02:22.478Z,972.97
2018-07-06T08:03:22.530Z,973.03
2018-07-06T08:04:22.582Z,973.01
2018-07-06T08:05:22.654Z,973.08
2018-07-06T08:06:22.711Z,973.02
2018-07-06T08:07:22.729Z,973.02
2018-07-06T08:08:22.779Z,973.06
2018-07-06T08:09:22.828Z,973.11
2018-07-06T08:10:22.905Z,973.08
2018-07-06T08:11:22.930Z,973.07
2018-07-06T08:12:23.006Z,973.10
2018-07-06T08:13:23.031Z,973.14
2018-07-06T08:14:23.102Z,973.13
2018-07-06T08:15:23.129Z,973.19
2018-07-06T08:16:23.183Z,973.13
2018-07-06T08:17:23.253Z,973.18
2018-07-06T08:18:23.332Z,973.20
2018-07-06T08:19:23.329Z,973.18
2018-07-06T08:20:23.379Z,973.18
2018-07-06T08:21:23.440Z,973.21
2018-07-06T08:22:23.517Z,973.20
2018-07-06T08:23:23.534Z,973.24
2018-07-06T08:24:23.579Z,973.24
2018-07-06T08:25:23.639Z,973.28
2018-07-06T08:26:23.681Z,973.26
2018-07-06T08:27:23.769Z,973.24
2018-07-06T08:28:23.779Z,973.26
2018-07-06T08:29:23.828Z,973.26
2018-07-06T08:30:23.947Z,973.31
2018-07-06T08:31:23.929Z,973.28
2018-07-06T08:32:24.004Z,973.28
2018-07-06T08:33:24.057Z,973.31
2018-07-06T08:34:24.081Z,973.34
2018-07-06T08:35:24.127Z,973.33
2018-07-06T08:36:24.182Z,973.32
2018-07-06T08:37:24.228Z,973.34
2018-07-06T08:38:24.309Z,973.32
2018-07-06T08:39:24.358Z,973.33
2018-07-06T08:40:24.376Z,973.34
2018-07-06T08:41:24.428Z,973.35
2018-07-06T08:42:24.478Z,973.35
2018-07-06T08:43:24.527Z,973.38
2018-07-06T08:44:24.609Z,973.40
2018-07-06T08:45:24.635Z,973.35
2018-07-06T08:46:24.680Z,973.38
2018-07-06T08:47:24.729Z,973.37
2018-07-06T08:48:24.779Z,973.36
2018-07-06T08:49:24.852Z,973.40
2018-07-06T08:50:24.985Z,973.41
2018-07-06T08:51:24.929Z,973.36
2018-07-06T08:52:24.983Z,973.41
2018-07-06T08:53:25.028Z,973.44
2018-07-06T08:54:25.076Z,973.43
2018-07-06T08:55:25.159Z,973.44
2018-07-06T08:56:25.175Z,973.44
2018-07-06T08:57:25.225Z,973.44
2018-07-06T08:58:25.333Z,973.43
2018-07-06T08:59:25.324Z,973.44
2018-07-06T09:00:25.412Z,973.47
2018-07-06T09:01:25.427Z,973.52
2018-07-06T09:02:25.474Z,973.45
2018-07-06T09:03:25.525Z,973.51
2018-07-06T09:04:25.751Z,973.55
2018-07-06T09:05:25.656Z,973.54
2018-07-06T09:06:25.677Z,973.52
2018-07-06T09:07:25.724Z,973.54
2018-07-06T09:08:25.773Z,973.52
2018-07-06T09:09:25.836Z,973.52
2018-07-06T09:10:25.914Z,973.51
2018-07-06T09:11:25.924Z,973.54
2018-07-06T09:12:25.974Z,973.51
2018-07-06T09:13:26.033Z,973.52
2018-07-06T09:14:26.077Z,973.54
2018-07-06T09:15:26.146Z,973.57
2018-07-06T09:16:26.174Z,973.54
2018-07-06T09:17:26.248Z,973.56
2018-07-06T09:18:26.271Z,973.54
2018-07-06T09:19:26.430Z,973.56
2018-07-06T09:20:26.375Z,973.58
2018-07-06T09:21:26.425Z,973.55
2018-07-06T09:22:26.495Z,973.56
2018-07-06T09:23:26.523Z,973.57
2018-07-06T09:24:26.570Z,973.54
2018-07-06T09:25:26.720Z,973.58
2018-07-06T09:26:26.674Z,973.59
2018-07-06T09:27:26.747Z,973.57
2018-07-06T09:28:26.768Z,973.54
2018-07-06T09:29:26.818Z,973.53
2018-07-06T09:30:26.869Z,973.50
2018-07-06T09:31:26.924Z,973.56
2018-07-06T09:32:26.991Z,973.50
2018-07-06T09:33:27.020Z,973.54
2018-07-06T09:34:27.067Z,973.53
2018-07-06T09:35:27.120Z,973.55
2018-07-06T09:36:27.169Z,973.53
2018-07-06T09:37:27.240Z,973.54
2018-07-06T09:38:27.269Z,973.52
2018-07-06T09:39:27.319Z,973.53
2018-07-06T09:40:27.369Z,973.53
2018-07-06T09:41:27.435Z,973.56
2018-07-06T09:42:27.491Z,973.56
2018-07-06T09:43:27.614Z,973.58
2018-07-06T09:44:27.567Z,973.54
2018-07-06T09:45:27.626Z,973.55
2018-07-06T09:46:27.673Z,973.59
2018-07-06T09:47:27.716Z,973.62
2018-07-06T09:48:27.789Z,973.62
2018-07-06T09:49:27.817Z,973.61
2018-07-06T09:50:27.891Z,973.60
2018-07-06T09:51:27.917Z,973.59
2018-07-06T09:52:27.967Z,973.62
2018-07-06T09:53:28.023Z,973.64
2018-07-06T09:54:28.069Z,973.66
2018-07-06T09:55:28.140Z,973.65
2018-07-06T09:56:28.166Z,973.67
2018-07-06T09:57:28.216Z,973.66
2018-07-06T09:58:28.270Z,973.68
2018-07-06T09:59:28.345Z,973.72
2018-07-06T10:00:28.394Z,973.70
2018-07-06T10:01:28.418Z,973.71
2018-07-06T10:02:28.468Z,973.71
2018-07-06T10:03:28.517Z,973.70
2018-07-06T10:04:28.565Z,973.77
2018-07-06T10:05:28.638Z,973.79
2018-07-06T10:06:28.667Z,973.79
2018-07-06T10:07:28.717Z,973.79
2018-07-06T10:08:28.765Z,973.80
2018-07-06T10:09:28.819Z,973.80
2018-07-06T10:10:28.895Z,973.79
2018-07-06T10:11:28.947Z,973.77
2018-07-06T10:12:28.985Z,973.80
2018-07-06T10:13:29.020Z,973.81
2018-07-06T10:14:29.065Z,973.80
2018-07-06T10:15:29.116Z,973.80
2018-07-06T10:16:29.194Z,973.84
2018-07-06T10:17:29.256Z,973.83
2018-07-06T10:18:29.267Z,973.79
2018-07-06T10:19:29.345Z,973.82
2018-07-06T10:20:29.365Z,973.82
2018-07-06T10:21:29.417Z,973.81
2018-07-06T10:22:29.490Z,973.80
2018-07-06T10:23:29.526Z,973.79
2018-07-06T10:24:29.570Z,973.83
2018-07-06T10:25:29.616Z,973.82
2018-07-06T10:26:29.668Z,973.79
2018-07-06T10:27:29.759Z,973.81
2018-07-06T10:28:29.771Z,973.82
2018-07-06T10:29:29.822Z,973.83
2018-07-06T10:30:29.868Z,973.79
2018-07-06T10:31:29.920Z,973.79
2018-07-06T10:32:29.995Z,973.81
2018-07-06T10:33:30.060Z,973.82
2018-07-06T10:34:30.068Z,973.82
2018-07-06T10:35:30.121Z,973.80
2018-07-06T10:36:30.168Z,973.84
2018-07-06T10:37:30.247Z,973.83
2018-07-06T10:38:30.270Z,973.81
2018-07-06T10:39:30.398Z,973.82
2018-07-06T10:40:30.370Z,973.80
2018-07-06T10:41:30.426Z,973.82
2018-07-06T10:42:30.496Z,973.79
2018-07-06T10:43:30.526Z,973.80
2018-07-06T10:44:30.573Z,973.83
2018-07-06T10:45:30.623Z,973.84
2018-07-06T10:46:30.687Z,973.85
2018-07-06T10:47:30.759Z,973.88
2018-07-06T10:48:30.775Z,973.91
2018-07-06T10:49:30.825Z,973.89
2018-07-06T10:50:30.877Z,973.90
2018-07-06T10:51:30.926Z,973.91
2018-07-06T10:52:31.001Z,973.90
2018-07-06T10:53:31.055Z,973.89
2018-07-06T10:54:31.083Z,973.94
2018-07-06T10:55:31.132Z,973.92
2018-07-06T10:56:31.182Z,973.92
2018-07-06T10:57:31.232Z,973.94
2018-07-06T10:58:31.314Z,973.98
2018-07-06T10:59:31.332Z,973.97
2018-07-06T11:00:31.383Z,973.94
2018-07-06T11:01:31.437Z,973.95
2018-07-06T11:02:31.486Z,973.95
2018-07-06T11:03:31.575Z,973.97
2018-07-06T11:04:31.589Z,973.95
2018-07-06T11:05:31.642Z,973.94
2018-07-06T11:06:31.691Z,973.94
2018-07-06T11:07:31.741Z,973.93
2018-07-06T11:08:31.823Z,973.93
2018-07-06T11:09:31.844Z,973.92
2018-07-06T11:10:31.892Z,973.91
2018-07-06T11:11:31.952Z,973.94
2018-07-06T11:12:31.996Z,973.93
2018-07-06T11:13:32.081Z,973.91
2018-07-06T11:14:32.098Z,973.90
2018-07-06T11:15:32.149Z,973.92
2018-07-06T11:16:32.198Z,973.93
2018-07-06T11:17:32.255Z,973.92
2018-07-06T11:18:32.326Z,973.92
2018-07-06T11:19:32.354Z,973.91
2018-07-06T11:20:32.437Z,973.92
2018-07-06T11:21:32.461Z,973.95
2018-07-06T11:22:32.507Z,973.92
2018-07-06T11:23:32.560Z,973.94
2018-07-06T11:24:32.632Z,973.99
2018-07-06T11:25:32.687Z,973.98
2018-07-06T11:26:32.729Z,974.00
2018-07-06T11:27:32.762Z,974.01
2018-07-06T11:28:32.843Z,974.04
2018-07-06T11:29:32.893Z,974.00
2018-07-06T11:30:32.918Z,974.03
2018-07-06T11:31:32.966Z,974.04
2018-07-06T11:32:33.022Z,974.05
2018-07-06T11:33:33.067Z,974.04
2018-07-06T11:34:33.144Z,974.06
2018-07-06T11:35:33.196Z,974.01
2018-07-06T11:36:33.220Z,974.07
2018-07-06T11:37:33.275Z,974.04
2018-07-06T11:38:33.323Z,974.04
2018-07-06T11:39:33.374Z,974.04
2018-07-06T11:40:33.451Z,974.07
2018-07-06T11:41:33.477Z,974.02
2018-07-06T11:42:33.531Z,974.07
2018-07-06T11:43:33.580Z,974.11
2018-07-06T11:44:33.632Z,974.07
2018-07-06T11:45:33.707Z,974.12
2018-07-06T11:46:33.768Z,974.10
2018-07-06T11:47:33.786Z,974.11
2018-07-06T11:48:33.837Z,974.09
2018-07-06T11:49:33.892Z,974.13
2018-07-06T11:50:33.937Z,974.11
2018-07-06T11:51:34.026Z,974.10
2018-07-06T11:52:34.039Z,974.12
2018-07-06T11:53:34.095Z,974.09
2018-07-06T11:54:34.144Z,974.11
2018-07-06T11:55:34.196Z,974.10
2018-07-06T11:56:34.269Z,974.11
2018-07-06T11:57:34.326Z,974.11
2018-07-06T11:58:34.347Z,974.09
2018-07-06T11:59:34.406Z,974.09
2018-07-06T12:00:34.453Z,974.07
2018-07-06T12:01:34.501Z,974.09
2018-07-06T12:02:34.578Z,974.08
2018-07-06T12:03:34.604Z,974.09
2018-07-06T12:04:34.675Z,974.11
2018-07-06T12:05:34.709Z,974.13
2018-07-06T12:06:34.758Z,974.09
2018-07-06T12:07:34.833Z,974.13
2018-07-06T12:08:34.859Z,974.12
2018-07-06T12:09:34.921Z,974.11
2018-07-06T12:10:34.961Z,974.09
2018-07-06T12:11:35.017Z,974.06
2018-07-06T12:12:35.097Z,974.07
2018-07-06T12:13:35.116Z,974.09
2018-07-06T12:14:35.167Z,974.04
2018-07-06T12:15:35.278Z,974.07
2018-07-06T12:16:35.270Z,974.01
2018-07-06T12:17:35.344Z,974.02
2018-07-06T12:18:35.371Z,974.03
2018-07-06T12:19:35.422Z,974.04
2018-07-06T12:20:35.474Z,974.02
2018-07-06T12:21:35.525Z,974.05
2018-07-06T12:22:35.599Z,974.07
2018-07-06T12:23:35.667Z,974.10
2018-07-06T12:24:35.678Z,974.07
2018-07-06T12:25:35.730Z,974.08
2018-07-06T12:26:35.782Z,974.07
2018-07-06T12:27:35.832Z,974.09
2018-07-06T12:28:35.916Z,974.08
2018-07-06T12:29:35.934Z,974.08